Time;durP1;ratioP1;P1;durP2;ratioP2;P2;SDS_P1;SDS_P2;PMS_P1;PMS_P2;Temp;Humidity;BMP_temperature;BMP_pressure;BME280_temperature;BME280_humidity;BME280_pressure;Samples;Min_cycle;Max_cycle;Signal;HPM_P1;HPM_P2
2022/04/09 00:01:17;;;;;;;1.77;0.90;;;14.00;99.90;;;;;;6326175;28;20959;-63
2022/04/09 00:04:20;;;;;;;1.73;1.07;;;13.90;99.90;;;;;;6324384;28;20476;-63
2022/04/09 00:07:24;;;;;;;3.50;1.60;;;13.90;99.90;;;;;;6324499;28;20460;-63
2022/04/09 00:10:27;;;;;;;1.83;1.47;;;13.90;99.90;;;;;;6324376;28;20468;-63
2022/04/09 00:13:32;;;;;;;2.50;1.50;;;13.90;99.90;;;;;;6324400;28;20472;-63
2022/04/09 00:16:35;;;;;;;4.83;1.80;;;13.80;99.90;;;;;;6323810;28;20940;-63
2022/04/09 00:19:38;;;;;;;1.67;1.57;;;13.90;99.90;;;;;;6323976;28;20551;-63
2022/04/09 00:22:41;;;;;;;1.57;1.47;;;13.80;99.90;;;;;;6324287;28;20483;-63
2022/04/09 00:25:45;;;;;;;4.40;1.87;;;13.60;99.90;;;;;;6324272;28;20472;-63
2022/04/09 00:28:49;;;;;;;2.40;1.80;;;13.50;99.90;;;;;;6324026;28;20504;-63
2022/04/09 00:31:52;;;;;;;2.60;2.10;;;13.50;99.90;;;;;;6323722;28;20515;-62
2022/04/09 00:34:56;;;;;;;1.83;1.57;;;13.50;99.90;;;;;;6320424;28;20542;-62
2022/04/09 00:37:59;;;;;;;2.73;2.13;;;13.50;99.90;;;;;;6328450;28;20479;-62
2022/04/09 00:41:02;;;;;;;2.17;1.70;;;13.50;99.90;;;;;;6328405;28;20471;-62
2022/04/09 00:44:16;;;;;;;2.00;1.60;;;13.40;99.90;;;;;;6328510;28;20487;-63
2022/04/09 00:47:19;;;;;;;1.90;1.53;;;13.40;99.90;;;;;;6328442;28;20464;-63
2022/04/09 00:50:23;;;;;;;2.60;1.27;;;13.40;99.90;;;;;;6328213;28;21208;-63
2022/04/09 00:53:27;;;;;;;1.60;1.30;;;13.40;99.90;;;;;;6327950;28;20782;-63
2022/04/09 00:56:31;;;;;;;1.63;1.53;;;13.40;99.90;;;;;;6327840;28;20483;-62
2022/04/09 00:59:39;;;;;;;2.10;1.60;;;13.40;99.90;;;;;;6328180;28;20468;-63
2022/04/09 01:02:44;;;;;;;2.07;1.80;;;13.30;99.90;;;;;;6327912;28;20480;-62
2022/04/09 01:05:49;;;;;;;2.30;1.50;;;13.30;99.90;;;;;;6327780;28;20477;-62
2022/04/09 01:08:53;;;;;;;2.07;1.80;;;13.30;99.90;;;;;;6327558;28;20468;-62
2022/04/09 01:11:57;;;;;;;1.60;1.20;;;13.30;99.90;;;;;;6327893;28;20523;-63
2022/04/09 01:15:03;;;;;;;2.47;1.70;;;13.00;99.90;;;;;;6327687;28;20472;-62
2022/04/09 01:18:07;;;;;;;1.57;1.20;;;12.90;99.90;;;;;;6328636;28;20484;-62
2022/04/09 01:21:10;;;;;;;1.80;1.60;;;12.70;99.90;;;;;;6327203;28;20825;-62
2022/04/09 01:24:15;;;;;;;2.77;1.30;;;12.40;99.90;;;;;;6327201;28;20472;-62
2022/04/09 01:27:18;;;;;;;3.67;1.70;;;12.40;99.90;;;;;;6327417;28;20772;-62
2022/04/09 01:30:21;;;;;;;4.70;1.97;;;12.40;99.90;;;;;;6327257;28;20436;-63
2022/04/09 01:33:24;;;;;;;2.63;2.10;;;12.40;99.90;;;;;;6327425;28;20469;-62
2022/04/09 01:36:27;;;;;;;3.40;2.43;;;12.40;99.90;;;;;;6326603;28;20948;-62
2022/04/09 01:39:32;;;;;;;2.60;2.40;;;12.40;99.90;;;;;;6327545;28;20463;-62
2022/04/09 01:42:36;;;;;;;2.93;2.13;;;12.40;99.90;;;;;;6326829;28;20787;-63
2022/04/09 01:45:40;;;;;;;3.20;2.47;;;12.40;99.90;;;;;;6326953;28;20464;-63
2022/04/09 01:48:43;;;;;;;3.30;2.10;;;12.40;99.90;;;;;;6326255;28;20815;-63
2022/04/09 01:51:49;;;;;;;2.93;2.47;;;12.40;99.90;;;;;;6326688;28;20823;-63
2022/04/09 01:54:54;;;;;;;3.87;2.70;;;12.50;99.90;;;;;;6326734;28;20530;-62
2022/04/09 01:57:57;;;;;;;2.50;2.30;;;12.60;99.90;;;;;;6326880;28;20472;-62
2022/04/09 02:01:00;;;;;;;2.50;2.30;;;12.60;99.90;;;;;;6326741;28;21179;-63
2022/04/09 02:04:04;;;;;;;3.73;2.20;;;12.60;99.90;;;;;;6326364;28;20483;-63
2022/04/09 02:07:07;;;;;;;2.90;2.60;;;12.60;99.90;;;;;;6326716;28;20472;-62
2022/04/09 02:10:12;;;;;;;4.00;2.70;;;12.60;99.90;;;;;;6326338;28;20860;-62
2022/04/09 02:13:18;;;;;;;3.20;2.90;;;12.60;99.90;;;;;;6326977;28;20495;-62
2022/04/09 02:16:21;;;;;;;4.17;2.90;;;12.50;99.90;;;;;;6326457;28;20468;-62
2022/04/09 02:19:24;;;;;;;3.40;3.10;;;12.50;99.90;;;;;;6326842;28;20551;-62
2022/04/09 02:22:27;;;;;;;3.50;3.20;;;12.40;99.90;;;;;;6325564;28;20503;-62
2022/04/09 02:25:32;;;;;;;3.40;3.20;;;12.40;99.90;;;;;;6325584;28;20487;-62
2022/04/09 02:28:35;;;;;;;6.80;4.20;;;12.40;99.90;;;;;;6325382;28;20487;-62
2022/04/09 02:31:38;;;;;;;3.40;3.10;;;12.40;99.90;;;;;;6325681;28;20464;-62
2022/04/09 02:34:41;;;;;;;4.10;3.30;;;12.40;99.90;;;;;;6325700;28;20538;-62
2022/04/09 02:37:44;;;;;;;3.10;2.90;;;12.50;99.90;;;;;;6326385;28;20983;-63
2022/04/09 02:40:48;;;;;;;3.47;3.20;;;12.50;99.90;;;;;;6319433;28;20843;-62
2022/04/09 02:43:52;;;;;;;3.30;3.00;;;12.50;99.90;;;;;;6331624;28;20487;-62
2022/04/09 02:46:55;;;;;;;4.00;3.60;;;12.50;99.90;;;;;;6333795;28;20468;-62
2022/04/09 02:49:58;;;;;;;4.03;3.50;;;12.50;99.90;;;;;;6332623;28;20555;-62
2022/04/09 02:53:01;;;;;;;3.93;3.63;;;12.40;99.90;;;;;;6330728;28;20469;-62
2022/04/09 02:56:05;;;;;;;3.93;3.63;;;12.50;99.90;;;;;;6339929;28;20940;-62
2022/04/09 02:59:09;;;;;;;4.40;3.57;;;12.50;99.90;;;;;;6334232;28;20483;-63
2022/04/09 03:02:12;;;;;;;3.20;3.00;;;12.50;99.90;;;;;;6334265;28;20476;-62
2022/04/09 03:05:15;;;;;;;3.50;3.20;;;12.50;99.90;;;;;;6334230;28;20469;-63
2022/04/09 03:08:18;;;;;;;4.73;3.80;;;12.50;99.90;;;;;;6333896;28;20475;-62
2022/04/09 03:11:23;;;;;;;4.13;3.60;;;12.50;99.90;;;;;;6335701;28;20460;-63
2022/04/09 03:14:26;;;;;;;4.60;4.30;;;12.50;99.90;;;;;;6337970;28;20479;-63
2022/04/09 03:17:29;;;;;;;6.10;4.97;;;12.50;99.90;;;;;;6336689;28;20476;-62
2022/04/09 03:20:32;;;;;;;5.60;5.20;;;12.40;99.90;;;;;;6330896;28;20844;-62
2022/04/09 03:23:35;;;;;;;5.57;5.00;;;12.40;99.90;;;;;;6331011;28;20483;-62
2022/04/09 03:26:40;;;;;;;6.13;5.60;;;12.00;99.90;;;;;;6327996;28;20959;-62
2022/04/09 03:29:43;;;;;;;9.20;5.47;;;12.00;99.90;;;;;;6325699;28;20576;-62
2022/04/09 03:32:46;;;;;;;5.70;5.20;;;12.00;99.90;;;;;;6325126;28;20472;-62
2022/04/09 03:35:49;;;;;;;6.40;5.50;;;12.00;99.90;;;;;;6325187;28;20468;-62
2022/04/09 03:38:52;;;;;;;5.30;4.90;;;12.00;99.90;;;;;;6324574;28;20841;-62
2022/04/09 03:41:56;;;;;;;5.40;4.90;;;12.00;99.90;;;;;;6324785;28;20469;-62
2022/04/09 03:45:20;;;;;;;5.03;4.53;;;12.00;99.90;;;;;;6321503;28;20465;-63
2022/04/09 03:48:23;;;;;;;4.73;4.33;;;12.00;99.90;;;;;;6313091;28;20436;-62
2022/04/09 03:51:26;;;;;;;4.87;4.20;;;12.00;99.90;;;;;;6315392;28;20440;-62
2022/04/09 03:54:30;;;;;;;4.90;4.07;;;12.10;99.90;;;;;;6303377;28;20982;-62
2022/04/09 03:57:34;;;;;;;5.27;4.43;;;12.10;99.90;;;;;;6317343;28;20457;-62
2022/04/09 04:00:38;;;;;;;4.47;4.03;;;12.10;99.90;;;;;;6303153;28;20473;-63
2022/04/09 04:03:41;;;;;;;4.37;4.07;;;12.10;99.90;;;;;;6305216;28;20469;-62
2022/04/09 04:06:44;;;;;;;4.43;3.70;;;12.10;99.90;;;;;;6299310;28;20461;-62
2022/04/09 04:09:47;;;;;;;3.70;3.43;;;12.10;99.90;;;;;;6300185;28;20519;-62
2022/04/09 04:12:52;;;;;;;4.60;4.20;;;12.10;99.90;;;;;;6310295;28;20484;-64
2022/04/09 04:15:55;;;;;;;4.10;3.77;;;12.10;99.90;;;;;;6321740;28;20468;-64
2022/04/09 04:18:58;;;;;;;3.97;3.67;;;12.10;99.90;;;;;;6320619;28;20464;-64
2022/04/09 04:22:02;;;;;;;4.93;4.17;;;12.10;99.90;;;;;;6318122;28;20481;-64
2022/04/09 04:25:05;;;;;;;5.07;3.93;;;12.20;99.90;;;;;;6318659;28;20959;-63
2022/04/09 04:28:10;;;;;;;5.17;4.70;;;12.20;99.90;;;;;;6329150;28;20475;-63
2022/04/09 04:31:13;;;;;;;6.93;5.90;;;12.30;99.90;;;;;;6328960;28;20472;-63
2022/04/09 04:34:16;;;;;;;8.13;7.33;;;12.40;99.90;;;;;;6329244;28;20479;-63
2022/04/09 04:37:19;;;;;;;8.90;6.90;;;12.40;99.90;;;;;;6328830;28;20956;-65
2022/04/09 04:40:22;;;;;;;7.70;6.87;;;12.40;99.90;;;;;;6328728;28;20480;-65
2022/04/09 04:43:27;;;;;;;7.20;6.07;;;12.40;99.90;;;;;;6328494;28;20940;-66
2022/04/09 04:46:30;;;;;;;6.80;6.30;;;12.40;99.90;;;;;;6323932;28;20468;-65
2022/04/09 04:49:34;;;;;;;7.20;6.60;;;12.40;99.90;;;;;;6326248;28;20921;-65
2022/04/09 04:52:38;;;;;;;6.10;5.60;;;12.40;99.90;;;;;;6328576;28;20468;-65
2022/04/09 04:55:41;;;;;;;6.77;6.07;;;12.40;99.90;;;;;;6327986;28;20472;-65
2022/04/09 04:58:45;;;;;;;5.23;4.73;;;12.40;99.90;;;;;;6328490;28;20480;-65
2022/04/09 05:01:48;;;;;;;5.03;4.60;;;12.40;99.90;;;;;;6328227;28;20480;-64
2022/04/09 05:04:52;;;;;;;5.50;5.00;;;12.50;99.90;;;;;;6328008;28;20468;-65
2022/04/09 05:07:55;;;;;;;6.97;4.97;;;12.50;99.90;;;;;;6328011;28;20471;-65
2022/04/09 05:10:58;;;;;;;5.63;4.90;;;12.50;99.90;;;;;;6327870;28;20475;-66
2022/04/09 05:14:04;;;;;;;5.23;4.73;;;12.60;99.90;;;;;;6328248;28;20587;-65
2022/04/09 05:17:07;;;;;;;5.07;4.67;;;12.70;99.90;;;;;;6327642;28;20483;-65
2022/04/09 05:20:14;;;;;;;4.83;4.30;;;12.70;99.90;;;;;;6327539;28;20476;-65
2022/04/09 05:23:17;;;;;;;4.00;3.70;;;12.70;99.90;;;;;;6326861;28;20473;-65
2022/04/09 05:26:20;;;;;;;4.90;4.50;;;12.70;99.90;;;;;;6327531;28;20480;-66
2022/04/09 05:29:24;;;;;;;4.70;4.30;;;12.80;99.90;;;;;;6327294;28;20472;-65
2022/04/09 05:32:27;;;;;;;3.63;3.33;;;12.80;99.90;;;;;;6322900;28;20485;-65
2022/04/09 05:35:31;;;;;;;4.20;3.90;;;12.90;99.90;;;;;;6302133;28;20861;-65
2022/04/09 05:38:34;;;;;;;3.97;3.67;;;12.90;99.90;;;;;;6302028;28;20484;-65
2022/04/09 05:41:37;;;;;;;4.63;4.23;;;12.90;99.90;;;;;;6301827;28;20481;-66
2022/04/09 05:44:42;;;;;;;4.00;3.70;;;12.90;99.90;;;;;;6301833;28;20484;-65
2022/04/09 05:47:46;;;;;;;3.70;3.40;;;12.90;99.90;;;;;;6301523;28;20973;-66
2022/04/09 05:50:49;;;;;;;3.57;3.27;;;12.90;99.90;;;;;;6301837;28;20492;-65
2022/04/09 05:53:53;;;;;;;3.43;2.90;;;12.90;99.90;;;;;;6324455;28;20476;-63
2022/04/09 05:56:56;;;;;;;4.70;3.17;;;12.90;99.90;;;;;;6326866;28;20485;-64
2022/04/09 06:00:01;;;;;;;2.90;2.70;;;12.90;99.90;;;;;;6326354;28;20476;-64
2022/04/09 06:03:04;;;;;;;4.40;3.33;;;12.80;99.90;;;;;;6326456;28;20469;-64
2022/04/09 06:06:07;;;;;;;4.43;4.03;;;12.70;99.90;;;;;;6326422;28;20529;-64
2022/04/09 06:09:10;;;;;;;3.23;2.93;;;12.60;99.90;;;;;;6326366;28;20480;-63
2022/04/09 06:12:13;;;;;;;2.80;2.60;;;12.60;99.90;;;;;;6325898;28;20496;-63
2022/04/09 06:15:18;;;;;;;2.80;2.60;;;12.60;99.90;;;;;;6326568;28;20463;-62
2022/04/09 06:18:21;;;;;;;3.50;2.80;;;12.60;99.90;;;;;;6327152;28;20480;-62
2022/04/09 06:21:24;;;;;;;2.10;1.40;;;12.60;99.90;;;;;;6326443;28;20468;-62
2022/04/09 06:24:27;;;;;;;0.90;0.80;;;12.50;99.90;;;;;;6326349;28;20465;-62
2022/04/09 06:27:32;;;;;;;0.80;0.80;;;12.50;99.90;;;;;;6325906;28;20440;-62
2022/04/09 06:30:39;;;;;;;1.57;0.67;;;12.40;99.90;;;;;;6326719;28;20457;-62
2022/04/09 06:33:42;;;;;;;1.23;1.10;;;12.30;99.90;;;;;;6327215;28;21039;-62
2022/04/09 06:36:45;;;;;;;1.80;1.33;;;12.30;99.90;;;;;;6327067;28;20464;-62
2022/04/09 06:39:48;;;;;;;1.40;0.93;;;12.30;99.90;;;;;;6325795;28;20472;-62
2022/04/09 06:42:52;;;;;;;2.30;0.70;;;12.20;99.90;;;;;;6326166;28;20475;-62
2022/04/09 06:45:56;;;;;;;0.90;0.73;;;12.30;99.90;;;;;;6325917;28;20476;-62
2022/04/09 06:49:01;;;;;;;1.50;0.70;;;12.20;99.90;;;;;;6325568;28;20960;-62
2022/04/09 06:52:05;;;;;;;1.43;0.90;;;12.20;99.90;;;;;;6325755;28;20485;-62
2022/04/09 06:55:10;;;;;;;2.40;0.70;;;12.10;99.90;;;;;;6316310;28;20472;-62
2022/04/09 06:58:13;;;;;;;1.30;1.00;;;12.10;99.90;;;;;;6327798;28;20780;-63
2022/04/09 07:01:18;;;;;;;1.00;0.97;;;12.10;99.90;;;;;;6326591;28;20988;-63
2022/04/09 07:04:21;;;;;;;1.10;0.90;;;12.10;99.90;;;;;;6325155;28;20625;-63
2022/04/09 07:07:25;;;;;;;2.30;1.07;;;12.10;99.90;;;;;;6325559;28;20487;-63
2022/04/09 07:10:28;;;;;;;2.40;1.40;;;12.10;99.90;;;;;;6325355;28;20468;-63
2022/04/09 07:13:32;;;;;;;2.20;1.63;;;12.10;99.90;;;;;;6325042;28;20473;-63
2022/04/09 07:16:36;;;;;;;2.17;1.50;;;12.00;99.90;;;;;;6324945;28;20598;-63
2022/04/09 07:19:42;;;;;;;1.33;0.90;;;11.90;99.90;;;;;;6324790;28;20564;-63
2022/04/09 07:22:45;;;;;;;0.70;0.70;;;11.80;99.90;;;;;;6325097;28;20469;-64
2022/04/09 07:25:49;;;;;;;0.70;0.50;;;11.60;99.90;;;;;;6324930;28;20487;-63
2022/04/09 07:28:53;;;;;;;0.50;0.47;;;11.50;99.90;;;;;;6324801;28;20816;-63
2022/04/09 07:31:57;;;;;;;0.40;0.40;;;11.30;99.90;;;;;;6324512;28;20547;-63
2022/04/09 07:35:01;;;;;;;0.50;0.50;;;11.20;99.90;;;;;;6325044;28;20474;-64
2022/04/09 07:38:07;;;;;;;2.10;0.50;;;11.10;99.90;;;;;;6324998;28;20480;-63
2022/04/09 07:41:10;;;;;;;0.80;0.50;;;11.00;99.90;;;;;;6325287;28;20469;-63
2022/04/09 07:44:13;;;;;;;1.00;0.60;;;10.90;99.90;;;;;;6325012;28;20479;-63
2022/04/09 07:47:18;;;;;;;0.50;0.50;;;10.80;99.90;;;;;;6329996;28;20473;-63
2022/04/09 07:50:23;;;;;;;1.17;0.87;;;10.80;99.90;;;;;;6329995;28;20471;-63
2022/04/09 07:53:26;;;;;;;1.80;1.20;;;10.70;99.90;;;;;;6329594;28;20809;-63
2022/04/09 07:56:29;;;;;;;2.77;1.00;;;10.80;99.90;;;;;;6330749;28;20487;-63
2022/04/09 07:59:32;;;;;;;1.87;1.00;;;10.70;99.90;;;;;;6325470;28;20832;-63
2022/04/09 08:02:37;;;;;;;3.57;1.77;;;10.60;99.80;;;;;;6329460;28;20469;-63
2022/04/09 08:05:40;;;;;;;5.43;2.70;;;10.70;98.80;;;;;;6329629;28;20480;-63
2022/04/09 08:08:43;;;;;;;2.23;2.03;;;10.70;97.70;;;;;;6331670;28;20959;-63
2022/04/09 08:11:46;;;;;;;1.23;1.10;;;10.70;97.70;;;;;;6338333;28;20476;-63
2022/04/09 08:14:50;;;;;;;1.40;1.30;;;10.70;97.10;;;;;;6331240;28;20826;-63
2022/04/09 08:17:56;;;;;;;2.07;1.87;;;10.80;96.30;;;;;;6329557;28;20464;-63
2022/04/09 08:21:19;;;;;;;0.70;0.60;;;10.90;95.90;;;;;;6329105;28;20472;-63
2022/04/09 08:24:22;;;;;;;1.27;0.50;;;10.90;94.10;;;;;;6329956;28;20457;-63
2022/04/09 08:27:25;;;;;;;0.60;0.50;;;10.80;94.30;;;;;;6329713;28;20441;-63
2022/04/09 08:30:29;;;;;;;0.90;0.60;;;10.90;94.50;;;;;;6329046;28;20994;-63
2022/04/09 08:33:33;;;;;;;1.87;0.67;;;11.00;94.20;;;;;;6329301;28;20491;-63
2022/04/09 08:36:36;;;;;;;1.20;0.47;;;11.10;93.30;;;;;;6329137;28;20460;-63
2022/04/09 08:39:40;;;;;;;0.50;0.50;;;11.10;92.20;;;;;;6329123;28;20469;-63
2022/04/09 08:42:43;;;;;;;0.67;0.67;;;11.10;93.00;;;;;;6328852;28;20464;-63
2022/04/09 08:45:47;;;;;;;0.70;0.50;;;11.00;90.50;;;;;;6331379;28;20464;-63
2022/04/09 08:48:51;;;;;;;0.50;0.50;;;11.00;90.20;;;;;;6329070;28;20476;-62
2022/04/09 08:51:55;;;;;;;0.60;0.40;;;10.80;89.30;;;;;;6328760;28;20460;-63
2022/04/09 08:54:59;;;;;;;1.10;0.53;;;10.80;90.10;;;;;;6328220;28;20467;-63
2022/04/09 08:58:02;;;;;;;0.40;0.40;;;10.90;88.90;;;;;;6326692;28;20479;-62
2022/04/09 09:01:06;;;;;;;0.40;0.40;;;10.80;85.70;;;;;;6328570;28;20495;-62
2022/04/09 09:04:10;;;;;;;0.50;0.50;;;10.70;83.10;;;;;;6323766;28;20785;-63
2022/04/09 09:07:18;;;;;;;0.73;0.50;;;10.70;85.60;;;;;;6328581;28;20799;-63
2022/04/09 09:10:21;;;;;;;0.40;0.40;;;10.80;85.70;;;;;;6328057;28;20982;-63
2022/04/09 09:13:24;;;;;;;0.57;0.40;;;10.80;83.60;;;;;;6328216;28;20473;-63
2022/04/09 09:16:29;;;;;;;2.10;0.40;;;10.90;82.20;;;;;;6328234;28;20479;-63
2022/04/09 09:19:45;;;;;;;0.60;0.50;;;11.00;81.80;;;;;;6331293;28;20461;-65
2022/04/09 09:22:49;;;;;;;1.30;0.50;;;11.10;79.30;;;;;;6331918;28;20540;-65
2022/04/09 09:25:53;;;;;;;0.60;0.40;;;11.00;79.50;;;;;;6329026;28;20811;-63
2022/04/09 09:28:57;;;;;;;0.67;0.40;;;11.00;75.60;;;;;;6328189;28;20775;-63
2022/04/09 09:32:01;;;;;;;0.90;0.70;;;10.90;76.70;;;;;;6327535;28;20461;-63
2022/04/09 09:35:07;;;;;;;0.60;0.40;;;10.90;77.20;;;;;;6327636;28;20461;-63
2022/04/09 09:38:19;;;;;;;0.63;0.50;;;10.90;75.40;;;;;;6321343;28;20778;-63
2022/04/09 09:41:24;;;;;;;1.23;0.60;;;10.80;75.30;;;;;;6312766;28;20992;-63
2022/04/09 09:44:30;;;;;;;1.87;0.70;;;10.80;73.60;;;;;;6316401;28;20469;-62
2022/04/09 09:47:33;;;;;;;0.60;0.50;;;10.80;69.70;;;;;;6321848;28;20828;-62
2022/04/09 09:50:45;;;;;;;1.00;0.73;;;10.80;70.30;;;;;;6328768;28;20484;-63
2022/04/09 09:53:48;;;;;;;1.10;0.57;;;10.80;70.00;;;;;;6309684;28;20798;-63
2022/04/09 09:56:51;;;;;;;0.70;0.60;;;10.90;69.30;;;;;;6313002;28;20945;-63
2022/04/09 09:59:55;;;;;;;0.50;0.50;;;10.90;69.60;;;;;;6314151;28;20795;-62
2022/04/09 10:03:07;;;;;;;0.67;0.67;;;11.00;68.40;;;;;;6313873;28;20488;-62
2022/04/09 10:06:12;;;;;;;0.70;0.70;;;10.90;66.20;;;;;;6310865;28;20563;-62
2022/04/09 10:09:16;;;;;;;0.90;0.50;;;11.00;67.50;;;;;;6307213;28;20771;-63
2022/04/09 10:12:20;;;;;;;0.50;0.50;;;11.10;65.40;;;;;;6321139;28;20463;-63
2022/04/09 10:15:27;;;;;;;0.50;0.40;;;11.20;64.30;;;;;;6326988;28;20440;-63
2022/04/09 10:18:30;;;;;;;2.43;0.70;;;11.20;65.00;;;;;;6326396;28;20480;-64
2022/04/09 10:21:39;;;;;;;1.83;0.80;;;11.40;66.30;;;;;;6326335;28;20472;-64
2022/04/09 10:24:42;;;;;;;0.50;0.40;;;11.40;64.10;;;;;;6326945;28;20460;-63
2022/04/09 10:27:52;;;;;;;0.60;0.53;;;11.50;63.80;;;;;;6326216;28;20986;-65
2022/04/09 10:30:55;;;;;;;0.57;0.57;;;11.50;62.10;;;;;;6326638;28;20500;-64
2022/04/09 10:34:00;;;;;;;2.20;0.60;;;11.50;61.70;;;;;;6326987;28;20477;-65
2022/04/09 10:37:05;;;;;;;0.50;0.50;;;11.50;62.60;;;;;;6330832;28;20539;-65
2022/04/09 10:40:10;;;;;;;0.60;0.60;;;11.60;61.90;;;;;;6329702;28;20569;-64
2022/04/09 10:43:43;;;;;;;1.23;0.60;;;11.60;60.00;;;;;;6325828;28;20947;-63
2022/04/09 10:46:52;;;;;;;0.70;0.60;;;11.60;58.80;;;;;;6325469;28;20479;-63
2022/04/09 10:50:12;;;;;;;0.50;0.50;;;11.60;59.00;;;;;;6325474;28;20780;-63
2022/04/09 10:53:17;;;;;;;0.77;0.73;;;11.60;58.80;;;;;;6326084;28;20484;-63
2022/04/09 10:56:24;;;;;;;1.73;0.70;;;11.70;58.10;;;;;;6325717;28;20468;-63
2022/04/09 10:59:34;;;;;;;0.70;0.70;;;11.60;58.50;;;;;;6325721;28;20472;-65
2022/04/09 11:02:37;;;;;;;0.90;0.70;;;11.50;57.80;;;;;;6325526;28;20472;-64
2022/04/09 11:05:43;;;;;;;0.77;0.70;;;11.40;58.50;;;;;;6325691;28;20474;-64
2022/04/09 11:08:59;;;;;;;1.70;1.60;;;11.40;57.70;;;;;;6325189;28;20479;-64
2022/04/09 11:12:03;;;;;;;0.60;0.60;;;11.50;57.50;;;;;;6320765;28;20481;-66
2022/04/09 11:15:08;;;;;;;0.83;0.70;;;11.60;57.80;;;;;;6325518;28;20893;-66
2022/04/09 11:18:11;;;;;;;1.33;0.87;;;11.80;57.30;;;;;;6325589;28;20472;-66
2022/04/09 11:21:14;;;;;;;0.77;0.77;;;11.90;57.60;;;;;;6324345;28;20486;-66
2022/04/09 11:24:18;;;;;;;1.57;0.87;;;11.90;55.40;;;;;;6324806;28;20542;-65
2022/04/09 11:27:21;;;;;;;0.60;0.60;;;11.90;56.00;;;;;;6324973;28;20445;-65
2022/04/09 11:30:24;;;;;;;0.83;0.60;;;12.00;56.10;;;;;;6324736;28;20456;-63
2022/04/09 11:33:29;;;;;;;0.90;0.60;;;12.10;53.50;;;;;;6324922;28;20642;-64
2022/04/09 11:36:32;;;;;;;0.60;0.50;;;12.20;53.80;;;;;;6325095;28;20459;-63
2022/04/09 11:39:40;;;;;;;0.87;0.67;;;12.30;53.70;;;;;;6324878;28;20920;-63
2022/04/09 11:42:44;;;;;;;0.60;0.60;;;12.70;53.30;;;;;;6324518;28;20464;-65
2022/04/09 11:45:48;;;;;;;0.70;0.70;;;12.90;52.80;;;;;;6324723;28;20475;-65
2022/04/09 11:49:00;;;;;;;1.17;0.70;;;12.90;52.50;;;;;;6324838;28;20464;-63
2022/04/09 11:52:03;;;;;;;1.50;0.70;;;12.90;51.10;;;;;;6324540;28;20959;-65
2022/04/09 11:55:10;;;;;;;0.60;0.60;;;12.80;51.00;;;;;;6324565;28;20782;-64
2022/04/09 11:58:15;;;;;;;0.70;0.50;;;12.80;50.60;;;;;;6326819;28;20472;-64
2022/04/09 12:01:18;;;;;;;0.70;0.70;;;12.90;51.10;;;;;;6325295;28;20866;-64
2022/04/09 12:04:22;;;;;;;0.60;0.60;;;13.10;50.40;;;;;;6331870;22;20560;-64
2022/04/09 12:07:28;;;;;;;3.13;0.80;;;13.10;50.40;;;;;;6324850;28;20468;-64
2022/04/09 12:10:32;;;;;;;1.47;0.60;;;13.20;49.40;;;;;;6324745;28;20486;-64
2022/04/09 12:13:37;;;;;;;1.17;0.80;;;13.40;49.50;;;;;;6319877;28;20502;-64
2022/04/09 12:16:41;;;;;;;1.60;0.77;;;13.60;48.90;;;;;;6324471;28;20479;-64
2022/04/09 12:19:44;;;;;;;1.70;0.90;;;13.40;48.50;;;;;;6324275;28;20487;-64
2022/04/09 12:22:55;;;;;;;0.60;0.60;;;13.20;48.10;;;;;;6325063;28;20488;-63
2022/04/09 12:26:00;;;;;;;2.83;1.00;;;13.00;49.00;;;;;;6324838;28;20513;-63
2022/04/09 12:29:13;;;;;;;1.00;0.80;;;12.90;48.80;;;;;;6323902;28;20476;-63
2022/04/09 12:32:19;;;;;;;2.10;1.30;;;12.70;47.40;;;;;;6327090;28;20476;-64
2022/04/09 12:35:30;;;;;;;1.07;0.90;;;12.60;48.60;;;;;;6329031;28;20483;-64
2022/04/09 12:38:35;;;;;;;0.80;0.80;;;12.70;49.00;;;;;;6328805;28;20465;-64
2022/04/09 12:41:48;;;;;;;1.43;1.10;;;12.70;48.20;;;;;;6328699;28;20803;-64
2022/04/09 12:44:51;;;;;;;0.97;0.97;;;12.50;48.20;;;;;;6328372;28;20480;-64
2022/04/09 12:47:55;;;;;;;0.83;0.83;;;12.40;47.50;;;;;;6328051;28;20472;-64
2022/04/09 12:50:59;;;;;;;1.10;1.10;;;12.30;47.70;;;;;;6328192;28;20474;-63
2022/04/09 12:54:02;;;;;;;1.23;1.13;;;12.30;47.70;;;;;;6327853;28;20464;-64
2022/04/09 12:57:08;;;;;;;1.20;1.10;;;12.20;44.20;;;;;;6327930;28;20472;-63
2022/04/09 13:00:14;;;;;;;1.40;1.30;;;12.10;44.90;;;;;;6327806;28;20590;-63
2022/04/09 13:03:17;;;;;;;1.60;1.20;;;12.00;45.20;;;;;;6327649;28;20479;-63
2022/04/09 13:06:20;;;;;;;1.53;1.07;;;12.00;45.10;;;;;;6328143;28;20440;-63
2022/04/09 13:09:24;;;;;;;1.60;1.40;;;11.90;45.10;;;;;;6328322;28;20445;-63
2022/04/09 13:12:29;;;;;;;2.93;1.50;;;11.80;44.40;;;;;;6328251;28;20457;-63
2022/04/09 13:15:32;;;;;;;1.60;1.50;;;11.70;45.00;;;;;;6328400;28;20425;-65
2022/04/09 13:18:35;;;;;;;1.87;1.50;;;11.80;44.30;;;;;;6327739;28;20432;-64
2022/04/09 13:21:38;;;;;;;1.73;1.10;;;11.90;44.40;;;;;;6327728;28;20468;-64
2022/04/09 13:24:42;;;;;;;1.53;1.37;;;12.10;45.30;;;;;;6327765;28;20472;-63
2022/04/09 13:27:47;;;;;;;1.50;1.30;;;12.20;44.70;;;;;;6327235;28;20764;-64
2022/04/09 13:30:52;;;;;;;1.30;1.20;;;12.40;44.30;;;;;;6327329;28;20947;-64
2022/04/09 13:33:55;;;;;;;1.03;1.00;;;12.40;43.30;;;;;;6327226;28;20480;-65
2022/04/09 13:36:58;;;;;;;1.17;1.17;;;12.40;44.20;;;;;;6327344;28;20473;-63
2022/04/09 13:40:02;;;;;;;2.50;1.30;;;12.40;43.40;;;;;;6327327;28;20465;-65
2022/04/09 13:43:06;;;;;;;1.67;1.57;;;12.40;44.00;;;;;;6326297;28;20464;-64
2022/04/09 13:46:10;;;;;;;1.27;1.17;;;12.50;44.10;;;;;;6327046;28;20954;-63
2022/04/09 13:49:13;;;;;;;1.10;1.00;;;12.70;43.10;;;;;;6328405;28;20995;-64
2022/04/09 13:52:16;;;;;;;1.30;1.20;;;12.60;42.20;;;;;;6328499;28;20815;-65
2022/04/09 13:55:19;;;;;;;1.47;1.33;;;12.50;42.60;;;;;;6340148;28;20490;-65
2022/04/09 13:58:24;;;;;;;1.13;1.10;;;12.50;42.00;;;;;;6342372;28;20475;-64
2022/04/09 14:01:27;;;;;;;1.17;1.07;;;12.40;41.80;;;;;;6343748;28;20471;-65
2022/04/09 14:04:30;;;;;;;2.40;1.40;;;12.40;41.70;;;;;;6339489;28;20578;-64
2022/04/09 14:07:34;;;;;;;1.30;1.20;;;12.30;41.70;;;;;;6338915;28;20460;-64
2022/04/09 14:10:37;;;;;;;1.03;0.90;;;12.20;43.30;;;;;;6343460;28;20475;-66
2022/04/09 14:13:42;;;;;;;1.50;1.40;;;12.10;43.10;;;;;;6340213;28;20512;-68
2022/04/09 14:16:45;;;;;;;1.47;0.93;;;12.10;42.70;;;;;;6333554;28;20780;-69
2022/04/09 14:19:48;;;;;;;1.40;1.23;;;12.00;42.80;;;;;;6300982;28;20476;-67
2022/04/09 14:22:52;;;;;;;1.30;1.20;;;11.90;43.00;;;;;;6321086;28;20479;-65
2022/04/09 14:25:55;;;;;;;1.57;1.47;;;11.80;42.80;;;;;;6351643;28;20467;-64
2022/04/09 14:29:01;;;;;;;1.67;1.37;;;11.80;42.90;;;;;;6351334;28;20966;-68
2022/04/09 14:32:06;;;;;;;1.60;1.03;;;11.90;44.10;;;;;;6329723;28;20891;-67
2022/04/09 14:35:17;;;;;;;1.17;1.07;;;11.90;43.40;;;;;;6325940;28;20461;-68
2022/04/09 14:38:20;;;;;;;3.17;1.50;;;11.90;43.80;;;;;;6325764;28;20562;-65
2022/04/09 14:41:23;;;;;;;1.37;1.27;;;11.80;43.00;;;;;;6325670;28;20468;-65
2022/04/09 14:44:28;;;;;;;1.20;1.10;;;11.70;44.20;;;;;;6325461;28;20469;-63
2022/04/09 14:47:31;;;;;;;1.10;1.00;;;11.70;43.90;;;;;;6325505;28;20952;-66
2022/04/09 14:50:34;;;;;;;1.43;1.00;;;11.60;44.20;;;;;;6325953;28;20475;-66
2022/04/09 14:53:37;;;;;;;1.07;1.00;;;11.60;44.20;;;;;;6303954;28;20473;-65
2022/04/09 14:56:40;;;;;;;1.00;0.93;;;11.50;43.30;;;;;;6300273;28;20480;-64
2022/04/09 14:59:48;;;;;;;1.73;1.03;;;11.30;43.60;;;;;;6300009;28;20474;-66
2022/04/09 15:02:51;;;;;;;1.57;1.10;;;11.10;44.70;;;;;;6299627;28;20785;-63
2022/04/09 15:05:55;;;;;;;0.77;0.77;;;11.10;44.60;;;;;;6299974;28;20473;-63
2022/04/09 15:08:58;;;;;;;1.00;1.00;;;11.10;44.40;;;;;;6299917;28;20933;-63
2022/04/09 15:12:03;;;;;;;1.70;1.60;;;11.10;44.20;;;;;;6299757;28;20822;-64
2022/04/09 15:15:10;;;;;;;0.90;0.90;;;11.00;43.50;;;;;;6310216;28;20498;-62
2022/04/09 15:18:13;;;;;;;1.13;1.03;;;11.00;44.70;;;;;;6324369;28;20491;-67
2022/04/09 15:21:17;;;;;;;1.07;0.93;;;11.10;45.00;;;;;;6324007;28;21047;-65
2022/04/09 15:24:20;;;;;;;1.63;0.90;;;11.10;44.40;;;;;;6320131;28;20484;-65
2022/04/09 15:27:23;;;;;;;1.20;1.10;;;11.10;44.50;;;;;;6324805;28;20448;-63
2022/04/09 15:30:28;;;;;;;1.20;1.10;;;11.00;44.80;;;;;;6324865;28;20463;-62
2022/04/09 15:33:31;;;;;;;2.43;0.93;;;11.00;44.80;;;;;;6312230;28;20537;-62
2022/04/09 15:36:34;;;;;;;0.80;0.73;;;11.00;44.90;;;;;;6300779;28;20441;-63
2022/04/09 15:39:37;;;;;;;1.40;1.30;;;11.00;45.10;;;;;;6299720;28;20932;-64
2022/04/09 15:42:41;;;;;;;1.50;1.40;;;10.90;44.30;;;;;;6299446;28;20461;-64
2022/04/09 15:45:45;;;;;;;1.50;1.17;;;10.80;44.60;;;;;;6300966;28;20461;-63
2022/04/09 15:48:50;;;;;;;1.00;1.00;;;10.80;45.10;;;;;;6312985;28;20551;-63
2022/04/09 15:51:53;;;;;;;1.63;1.27;;;10.80;45.00;;;;;;6327205;28;20472;-63
2022/04/09 15:54:56;;;;;;;1.07;0.80;;;10.80;45.90;;;;;;6325520;28;20475;-64
2022/04/09 15:57:59;;;;;;;1.27;0.93;;;10.80;45.20;;;;;;6328188;28;20480;-65
2022/04/09 16:01:07;;;;;;;3.07;1.17;;;10.80;46.10;;;;;;6333746;28;20460;-64